createdAt,value
2023-04-28T00:00:51.402Z,2.53
2023-04-28T00:03:20.104Z,2.60
2023-04-28T00:05:47.476Z,3.10
2023-04-28T00:08:14.826Z,2.85
2023-04-28T00:10:41.909Z,2.69
2023-04-28T00:13:09.044Z,2.83
2023-04-28T00:15:36.152Z,2.37
2023-04-28T00:18:03.406Z,2.03
2023-04-28T00:20:31.948Z,1.92
2023-04-28T00:22:59.077Z,2.06
2023-04-28T00:25:26.230Z,2.50
2023-04-28T00:27:53.427Z,2.22
2023-04-28T00:30:20.947Z,2.16
2023-04-28T00:32:48.215Z,2.23
2023-04-28T00:35:15.384Z,2.52
2023-04-28T00:37:44.166Z,2.37
2023-04-28T00:40:12.207Z,2.19
2023-04-28T00:42:39.505Z,2.11
2023-04-28T00:45:08.049Z,2.23
2023-04-28T00:47:36.663Z,2.23
2023-04-28T00:50:05.125Z,2.26
2023-04-28T00:52:32.487Z,2.24
2023-04-28T00:55:01.186Z,2.25
2023-04-28T00:57:28.453Z,2.20
2023-04-28T00:59:55.567Z,2.05
2023-04-28T01:02:23.294Z,2.34
2023-04-28T01:04:51.096Z,2.25
2023-04-28T01:07:18.250Z,2.16
2023-04-28T01:09:45.409Z,2.29
2023-04-28T01:12:14.051Z,2.13
2023-04-28T01:14:42.122Z,2.12
2023-04-28T01:17:10.570Z,1.86
2023-04-28T01:19:37.848Z,1.25
2023-04-28T01:22:05.146Z,1.26
2023-04-28T01:24:33.927Z,1.56
2023-04-28T01:27:01.066Z,1.60
2023-04-28T01:29:28.628Z,1.69
2023-04-28T01:31:55.791Z,1.59
2023-04-28T01:34:22.989Z,1.58
2023-04-28T01:36:50.126Z,1.58
2023-04-28T01:39:17.766Z,1.73
2023-04-28T01:41:46.406Z,1.69
2023-04-28T01:44:13.644Z,1.87
2023-04-28T01:46:41.146Z,1.69
2023-04-28T01:49:08.215Z,1.89
2023-04-28T01:51:35.322Z,2.02
2023-04-28T01:54:02.491Z,2.04
2023-04-28T01:56:29.567Z,2.05
2023-04-28T01:58:58.190Z,1.99
2023-04-28T02:01:25.543Z,2.14
2023-04-28T02:03:53.083Z,2.10
2023-04-28T02:06:20.626Z,2.15
2023-04-28T02:08:47.743Z,2.16
2023-04-28T02:11:15.186Z,1.91
2023-04-28T02:13:42.324Z,2.33
2023-04-28T02:16:11.274Z,2.15
2023-04-28T02:18:38.623Z,2.23
2023-04-28T02:21:09.707Z,2.16
2023-04-28T02:23:36.805Z,2.03
2023-04-28T02:26:03.998Z,2.02
2023-04-28T02:28:31.245Z,1.68
2023-04-28T02:31:04.887Z,1.86
2023-04-28T02:33:33.904Z,2.10
2023-04-28T02:36:01.822Z,1.91
2023-04-28T02:38:29.280Z,1.94
2023-04-28T02:41:00.542Z,1.94
2023-04-28T02:43:28.577Z,2.19
2023-04-28T02:45:55.983Z,1.92
2023-04-28T02:48:23.583Z,1.78
2023-04-28T02:50:52.933Z,1.97
2023-04-28T02:53:20.985Z,1.92
2023-04-28T02:55:48.282Z,1.85
2023-04-28T02:58:15.864Z,1.70
2023-04-28T03:00:43.023Z,1.84
2023-04-28T03:03:10.405Z,1.87
2023-04-28T03:05:37.902Z,1.86
2023-04-28T03:08:06.882Z,1.72
2023-04-28T03:10:34.022Z,1.78
2023-04-28T03:13:01.283Z,1.77
2023-04-28T03:15:28.442Z,1.72
2023-04-28T03:17:55.585Z,1.62
2023-04-28T03:20:22.905Z,1.91
2023-04-28T03:22:50.040Z,1.76
2023-04-28T03:25:18.629Z,1.79
2023-04-28T03:27:45.905Z,1.74
2023-04-28T03:30:13.486Z,1.71
2023-04-28T03:32:40.602Z,1.65
2023-04-28T03:35:08.114Z,1.60
2023-04-28T03:37:35.421Z,1.59
2023-04-28T03:40:02.557Z,1.69
2023-04-28T03:42:31.170Z,1.78
2023-04-28T03:44:58.202Z,1.48
2023-04-28T03:47:25.428Z,1.66
2023-04-28T03:49:52.614Z,1.56
2023-04-28T03:52:19.745Z,1.51
2023-04-28T03:54:46.923Z,2.03
2023-04-28T03:57:14.082Z,1.65
2023-04-28T03:59:42.663Z,1.64
2023-04-28T04:02:09.892Z,1.53
2023-04-28T04:04:37.249Z,1.63
2023-04-28T04:07:04.706Z,1.78
2023-04-28T04:09:31.916Z,1.70
2023-04-28T04:11:59.191Z,1.78
2023-04-28T04:14:26.384Z,1.72
2023-04-28T04:16:55.082Z,1.78
2023-04-28T04:19:22.205Z,1.87
2023-04-28T04:21:49.309Z,1.80
2023-04-28T04:24:16.653Z,1.72
2023-04-28T04:26:44.325Z,1.80
2023-04-28T04:29:11.424Z,1.99
2023-04-28T04:31:38.757Z,1.84
2023-04-28T04:34:07.421Z,1.76
2023-04-28T04:36:34.617Z,1.86
2023-04-28T04:39:01.824Z,1.98
2023-04-28T04:41:29.105Z,1.85
2023-04-28T04:43:56.186Z,1.82
2023-04-28T04:46:23.777Z,1.96
2023-04-28T04:48:50.944Z,1.91
2023-04-28T04:51:19.581Z,1.97
2023-04-28T04:53:46.702Z,1.63
2023-04-28T04:56:13.961Z,1.99
2023-04-28T04:58:43.346Z,1.91
2023-04-28T05:01:10.502Z,1.91
2023-04-28T05:03:37.933Z,1.92
2023-04-28T05:06:05.510Z,1.87
2023-04-28T05:08:34.085Z,2.02
2023-04-28T05:11:01.246Z,1.90
2023-04-28T05:13:28.362Z,1.97
2023-04-28T05:15:55.569Z,1.94
2023-04-28T05:18:23.035Z,2.06
2023-04-28T05:20:50.244Z,2.02
2023-04-28T05:23:17.407Z,2.00
2023-04-28T05:25:46.154Z,1.73
2023-04-28T05:28:13.347Z,1.86
2023-04-28T05:30:40.464Z,1.94
2023-04-28T05:33:07.935Z,1.98
2023-04-28T05:35:35.298Z,1.89
2023-04-28T05:38:02.732Z,2.00
2023-04-28T05:40:30.190Z,1.94
2023-04-28T05:42:58.738Z,1.71
2023-04-28T05:45:26.070Z,1.94
2023-04-28T05:47:53.300Z,1.76
2023-04-28T05:50:20.690Z,1.76
2023-04-28T05:52:47.906Z,1.68
2023-04-28T05:55:15.348Z,1.82
2023-04-28T05:57:52.419Z,1.80
2023-04-28T06:00:22.743Z,1.73
2023-04-28T06:02:50.139Z,1.62
2023-04-28T06:05:18.095Z,1.40
2023-04-28T06:07:46.219Z,1.55
2023-04-28T06:10:14.558Z,1.64
2023-04-28T06:12:41.787Z,1.70
2023-04-28T06:15:09.495Z,1.70
2023-04-28T06:17:39.310Z,1.51
2023-04-28T06:20:07.795Z,1.54
2023-04-28T06:22:34.902Z,1.69
2023-04-28T06:25:02.004Z,1.78
2023-04-28T06:27:29.287Z,1.71
2023-04-28T06:29:56.446Z,1.73
2023-04-28T06:32:23.628Z,1.57
2023-04-28T06:34:52.235Z,1.67
2023-04-28T06:37:19.567Z,1.79
2023-04-28T06:39:46.735Z,1.78
2023-04-28T06:42:13.928Z,1.90
2023-04-28T06:44:41.106Z,1.72
2023-04-28T06:47:08.434Z,1.69
2023-04-28T06:49:35.828Z,1.85
2023-04-28T06:52:04.658Z,1.76
2023-04-28T06:54:31.988Z,1.68
2023-04-28T06:56:59.428Z,1.63
2023-04-28T06:59:26.704Z,1.73
2023-04-28T07:01:53.911Z,1.87
2023-04-28T07:04:21.385Z,1.59
2023-04-28T07:06:49.188Z,1.49
2023-04-28T07:09:17.972Z,1.57
2023-04-28T07:11:45.324Z,1.94
2023-04-28T07:14:12.532Z,1.63
2023-04-28T07:16:40.010Z,1.81
2023-04-28T07:19:07.211Z,1.94
2023-04-28T07:21:34.880Z,1.74
2023-04-28T07:24:02.089Z,1.84
2023-04-28T07:26:30.914Z,1.69
2023-04-28T07:28:58.098Z,1.84
2023-04-28T07:31:25.201Z,1.84
2023-04-28T07:33:52.472Z,1.79
2023-04-28T07:36:19.609Z,1.93
2023-04-28T07:38:46.932Z,1.96
2023-04-28T07:41:14.881Z,1.82
2023-04-28T07:43:43.505Z,1.82
2023-04-28T07:46:11.763Z,1.94
2023-04-28T07:48:39.048Z,2.21
2023-04-28T07:51:06.226Z,2.12
2023-04-28T07:53:33.846Z,1.96
2023-04-28T07:56:01.076Z,2.25
2023-04-28T07:58:28.483Z,2.17
2023-04-28T08:00:57.424Z,2.74
2023-04-28T08:03:24.811Z,2.73
2023-04-28T08:05:52.284Z,2.54
2023-04-28T08:08:19.583Z,3.08
2023-04-28T08:10:46.789Z,2.95
2023-04-28T08:13:13.943Z,2.65
2023-04-28T08:15:41.125Z,2.40
2023-04-28T08:18:09.946Z,2.26
2023-04-28T08:20:37.348Z,2.25
2023-04-28T08:23:04.769Z,2.25
2023-04-28T08:25:31.940Z,2.37
2023-04-28T08:27:59.700Z,2.15
2023-04-28T08:30:27.423Z,2.29
2023-04-28T08:32:54.595Z,2.13
2023-04-28T08:35:23.666Z,2.06
2023-04-28T08:37:52.607Z,2.29
2023-04-28T08:40:19.799Z,1.98
2023-04-28T08:42:48.940Z,2.03
2023-04-28T08:45:17.619Z,2.09
2023-04-28T08:47:44.923Z,2.04
2023-04-28T08:50:13.917Z,1.98
2023-04-28T08:52:43.111Z,1.93
2023-04-28T08:55:13.135Z,1.72
2023-04-28T08:57:44.439Z,1.89
2023-04-28T09:00:13.340Z,1.84
2023-04-28T09:02:40.546Z,1.70
2023-04-28T09:05:09.172Z,1.87
2023-04-28T09:07:36.955Z,1.99
2023-04-28T09:10:20.262Z,1.90
2023-04-28T09:12:48.878Z,1.72
2023-04-28T09:15:33.648Z,1.92
2023-04-28T09:18:03.068Z,1.81
2023-04-28T09:20:32.301Z,1.84
2023-04-28T09:23:15.702Z,1.72
2023-04-28T09:25:59.380Z,1.85
2023-04-28T09:28:26.543Z,1.84
2023-04-28T09:30:53.824Z,1.64
2023-04-28T09:33:21.141Z,1.64
2023-04-28T09:35:48.954Z,1.76
2023-04-28T09:38:16.933Z,1.80
2023-04-28T09:41:02.055Z,1.72
2023-04-28T09:43:31.988Z,1.77
2023-04-28T09:46:00.898Z,1.54
2023-04-28T09:48:30.246Z,1.61
2023-04-28T09:50:57.509Z,1.75
2023-04-28T09:53:24.682Z,1.73
2023-04-28T09:55:53.807Z,1.61
2023-04-28T09:58:23.572Z,1.71
2023-04-28T10:00:54.135Z,1.93
2023-04-28T10:03:24.273Z,1.62
2023-04-28T10:05:53.606Z,1.56
2023-04-28T10:08:21.971Z,1.77
2023-04-28T10:10:50.809Z,1.58
2023-04-28T10:13:18.587Z,1.77
2023-04-28T10:15:49.347Z,1.59
2023-04-28T10:18:17.605Z,1.88
2023-04-28T10:20:49.555Z,1.50
2023-04-28T10:23:53.205Z,1.49
2023-04-28T10:26:22.345Z,1.45
2023-04-28T10:28:51.584Z,1.44
2023-04-28T10:31:21.872Z,1.52
2023-04-28T10:33:54.968Z,1.58
2023-04-28T10:36:49.298Z,1.45
2023-04-28T10:39:16.959Z,1.55
2023-04-28T10:41:46.292Z,1.58
2023-04-28T10:44:44.123Z,1.46
2023-04-28T10:47:12.811Z,1.65
2023-04-28T10:50:06.269Z,1.45
2023-04-28T10:52:51.462Z,1.68
2023-04-28T10:55:32.547Z,1.73
2023-04-28T10:58:33.423Z,2.00
2023-04-28T11:01:26.338Z,1.61
2023-04-28T11:03:56.264Z,1.58
2023-04-28T11:06:25.810Z,1.71
2023-04-28T11:08:53.548Z,1.77
2023-04-28T11:11:26.857Z,1.83
2023-04-28T11:13:55.581Z,1.62
2023-04-28T11:16:25.027Z,1.63
2023-04-28T11:19:01.601Z,1.51
2023-04-28T11:21:28.891Z,1.56
2023-04-28T11:23:57.425Z,1.51
2023-04-28T11:26:25.596Z,1.45
2023-04-28T11:28:55.022Z,1.60
2023-04-28T11:31:23.859Z,1.52
2023-04-28T11:33:54.950Z,1.60
2023-04-28T11:36:32.608Z,1.75
2023-04-28T11:39:00.449Z,1.64
2023-04-28T11:41:27.921Z,1.74
2023-04-28T11:43:55.038Z,1.61
2023-04-28T11:46:25.166Z,1.53
2023-04-28T11:49:04.169Z,1.75
2023-04-28T11:51:35.031Z,1.63
2023-04-28T11:54:03.654Z,1.71
2023-04-28T11:56:31.095Z,1.51
2023-04-28T11:59:05.831Z,1.55
2023-04-28T12:01:34.110Z,1.38
2023-04-28T12:04:01.562Z,1.30
2023-04-28T12:06:29.152Z,1.57
2023-04-28T12:08:58.081Z,1.50
2023-04-28T12:11:25.933Z,1.62
2023-04-28T12:14:07.357Z,1.42
2023-04-28T12:16:42.197Z,1.57
2023-04-28T12:19:09.720Z,1.38
2023-04-28T12:21:38.575Z,1.48
2023-04-28T12:24:20.078Z,1.40
2023-04-28T12:26:48.078Z,1.49
2023-04-28T12:29:37.812Z,1.44
2023-04-28T12:32:08.867Z,1.52
2023-04-28T12:34:37.239Z,1.43
2023-04-28T12:37:04.848Z,1.43
2023-04-28T12:39:36.374Z,1.60
2023-04-28T12:42:05.011Z,1.42
2023-04-28T12:44:36.349Z,1.50
2023-04-28T12:47:04.935Z,1.47
2023-04-28T12:49:32.211Z,1.36
2023-04-28T12:51:59.310Z,1.42
2023-04-28T12:54:26.506Z,1.28
2023-04-28T12:56:55.272Z,1.45
2023-04-28T12:59:23.066Z,1.41
2023-04-28T13:01:50.924Z,1.47
2023-04-28T13:04:18.523Z,1.70
2023-04-28T13:06:46.046Z,1.40
2023-04-28T13:09:14.880Z,1.55
2023-04-28T13:11:42.867Z,1.41
2023-04-28T13:14:11.478Z,1.45
2023-04-28T13:16:39.034Z,1.42
2023-04-28T13:19:07.850Z,1.45
2023-04-28T13:21:39.112Z,1.44
2023-04-28T13:24:07.167Z,1.46
2023-04-28T13:26:35.115Z,1.21
2023-04-28T13:29:02.632Z,1.33
2023-04-28T13:31:32.193Z,1.44
2023-04-28T13:33:59.591Z,1.29
2023-04-28T13:36:26.752Z,1.36
2023-04-28T13:38:53.869Z,1.45
2023-04-28T13:41:21.090Z,1.32
2023-04-28T13:43:48.606Z,1.20
2023-04-28T13:46:15.935Z,1.41
2023-04-28T13:48:44.653Z,1.23
2023-04-28T13:51:12.288Z,1.29
2023-04-28T13:53:39.690Z,1.37
2023-04-28T13:56:07.727Z,1.30
2023-04-28T13:58:35.918Z,1.40
2023-04-28T14:01:03.228Z,1.27
2023-04-28T14:03:30.663Z,1.34
2023-04-28T14:05:59.851Z,1.51
2023-04-28T14:08:27.941Z,1.41
2023-04-28T14:10:55.506Z,1.45
2023-04-28T14:13:22.642Z,1.25
2023-04-28T14:15:58.663Z,1.73
2023-04-28T14:18:27.104Z,2.44
2023-04-28T14:20:54.661Z,2.04
2023-04-28T14:23:23.585Z,2.00
2023-04-28T14:25:55.267Z,1.97
2023-04-28T14:28:23.054Z,1.98
2023-04-28T14:30:50.394Z,1.76
2023-04-28T14:33:17.636Z,2.45
2023-04-28T14:35:44.900Z,3.19
2023-04-28T14:38:13.384Z,2.49
2023-04-28T14:40:42.143Z,10.07
2023-04-28T14:43:09.257Z,2.86
2023-04-28T14:45:36.822Z,2.38
2023-04-28T14:48:04.285Z,2.71
2023-04-28T14:50:32.054Z,2.15
2023-04-28T14:52:59.279Z,2.15
2023-04-28T14:55:26.491Z,1.97
2023-04-28T14:57:55.004Z,2.40
2023-04-28T15:00:22.268Z,1.96
2023-04-28T15:02:49.763Z,1.92
2023-04-28T15:05:17.355Z,1.76
2023-04-28T15:07:44.525Z,2.23
2023-04-28T15:10:11.711Z,2.45
2023-04-28T15:12:39.044Z,2.25
2023-04-28T15:15:09.198Z,2.00
2023-04-28T15:17:36.327Z,1.93
2023-04-28T15:20:04.364Z,1.68
2023-04-28T15:22:31.537Z,1.85
2023-04-28T15:24:58.867Z,1.82
2023-04-28T15:27:26.745Z,1.81
2023-04-28T15:29:55.203Z,1.74
2023-04-28T15:32:23.988Z,1.62
2023-04-28T15:34:51.408Z,1.54
2023-04-28T15:37:41.112Z,1.71
2023-04-28T15:40:10.252Z,1.51
2023-04-28T15:42:37.666Z,1.81
2023-04-28T15:45:06.004Z,1.72
2023-04-28T15:47:34.801Z,1.66
2023-04-28T15:50:02.110Z,1.59
2023-04-28T15:52:29.285Z,1.64
2023-04-28T15:54:56.518Z,1.59
2023-04-28T15:57:23.707Z,1.73
2023-04-28T15:59:50.990Z,1.74
2023-04-28T16:02:18.252Z,1.70
2023-04-28T16:04:47.033Z,1.62
2023-04-28T16:07:14.309Z,1.77
2023-04-28T16:09:41.626Z,2.05
2023-04-28T16:12:09.612Z,2.13
2023-04-28T16:14:36.926Z,1.93
2023-04-28T16:17:04.301Z,2.06
2023-04-28T16:19:31.492Z,1.88
2023-04-28T16:22:00.236Z,2.13
2023-04-28T16:24:27.503Z,1.86
2023-04-28T16:26:54.773Z,1.82
2023-04-28T16:29:22.061Z,1.79
2023-04-28T16:31:49.430Z,1.81
2023-04-28T16:34:16.669Z,2.01
2023-04-28T16:36:43.833Z,2.04
2023-04-28T16:39:12.729Z,1.85
2023-04-28T16:41:39.803Z,2.00
2023-04-28T16:44:06.987Z,1.92
2023-04-28T16:46:34.319Z,2.20
2023-04-28T16:49:01.472Z,1.94
2023-04-28T16:51:28.568Z,2.19
2023-04-28T16:53:55.706Z,2.23
2023-04-28T16:56:24.534Z,2.33
2023-04-28T16:58:52.234Z,1.94
2023-04-28T17:01:19.499Z,1.90
2023-04-28T17:03:46.954Z,2.09
2023-04-28T17:06:14.347Z,1.94
2023-04-28T17:08:41.535Z,2.20
2023-04-28T17:11:08.753Z,2.19
2023-04-28T17:13:37.898Z,2.24
2023-04-28T17:16:05.428Z,2.20
2023-04-28T17:18:32.706Z,2.06
2023-04-28T17:20:59.874Z,1.76
2023-04-28T17:23:27.074Z,1.93
2023-04-28T17:25:54.350Z,2.04
2023-04-28T17:28:21.537Z,2.28
2023-04-28T17:30:50.626Z,1.91
2023-04-28T17:33:17.722Z,2.14
2023-04-28T17:35:44.848Z,2.03
2023-04-28T17:38:12.070Z,2.27
2023-04-28T17:40:39.214Z,2.54
2023-04-28T17:43:06.354Z,2.27
2023-04-28T17:45:33.633Z,2.20
2023-04-28T17:48:02.248Z,2.30
2023-04-28T17:50:29.454Z,2.19
2023-04-28T17:52:56.656Z,2.38
2023-04-28T17:55:23.809Z,2.45
2023-04-28T17:57:50.953Z,2.62
2023-04-28T18:00:18.251Z,2.83
2023-04-28T18:02:45.428Z,3.02
2023-04-28T18:05:14.057Z,2.93
2023-04-28T18:07:41.432Z,3.02
2023-04-28T18:10:08.988Z,2.70
2023-04-28T18:12:36.729Z,2.59
2023-04-28T18:15:04.191Z,2.63
2023-04-28T18:17:31.520Z,2.65
2023-04-28T18:19:58.615Z,2.92
2023-04-28T18:22:27.176Z,3.46
2023-04-28T18:24:54.373Z,3.20
2023-04-28T18:27:21.500Z,3.56
2023-04-28T18:29:48.656Z,2.44
2023-04-28T18:32:15.902Z,3.22
2023-04-28T18:34:59.058Z,3.21
2023-04-28T18:37:27.751Z,2.65
2023-04-28T18:39:55.955Z,2.98
2023-04-28T18:42:23.375Z,3.10
2023-04-28T18:44:52.854Z,2.64
2023-04-28T18:47:21.184Z,2.63
2023-04-28T18:49:48.968Z,2.58
2023-04-28T18:52:16.652Z,2.61
2023-04-28T18:54:45.190Z,3.04
2023-04-28T18:57:12.414Z,2.83
2023-04-28T18:59:39.617Z,2.55
2023-04-28T19:02:06.875Z,2.98
2023-04-28T19:04:34.059Z,2.98
2023-04-28T19:07:01.291Z,3.29
2023-04-28T19:09:28.290Z,3.26
2023-04-28T19:11:56.813Z,3.24
2023-04-28T19:14:23.874Z,3.14
2023-04-28T19:16:51.044Z,3.04
2023-04-28T19:19:18.283Z,3.08
2023-04-28T19:21:45.475Z,3.03
2023-04-28T19:24:12.578Z,3.57
2023-04-28T19:26:39.715Z,3.19
2023-04-28T19:29:08.378Z,3.49
2023-04-28T19:31:35.642Z,3.84
2023-04-28T19:34:02.906Z,4.53
2023-04-28T19:36:30.035Z,4.07
2023-04-28T19:38:57.176Z,4.20
2023-04-28T19:41:24.333Z,4.04
2023-04-28T19:43:51.642Z,4.09
2023-04-28T19:46:20.365Z,3.84
2023-04-28T19:48:47.596Z,3.69
2023-04-28T19:51:14.756Z,3.78
2023-04-28T19:53:42.042Z,3.77
2023-04-28T19:56:09.240Z,3.96
2023-04-28T19:58:36.514Z,4.59
2023-04-28T20:01:06.662Z,4.03
2023-04-28T20:03:35.452Z,3.49
2023-04-28T20:06:02.941Z,2.57
2023-04-28T20:08:30.073Z,2.70
2023-04-28T20:10:57.456Z,3.08
2023-04-28T20:13:25.656Z,3.56
2023-04-28T20:15:53.885Z,3.25
2023-04-28T20:18:21.317Z,3.55
2023-04-28T20:20:52.623Z,3.47
2023-04-28T20:23:19.773Z,3.61
2023-04-28T20:25:47.259Z,3.68
2023-04-28T20:28:14.424Z,3.64
2023-04-28T20:30:42.350Z,3.15
2023-04-28T20:33:09.971Z,2.33
2023-04-28T20:35:38.180Z,1.87
2023-04-28T20:38:06.740Z,1.62
2023-04-28T20:40:37.179Z,1.96
2023-04-28T20:43:04.478Z,1.86
2023-04-28T20:45:32.030Z,1.65
2023-04-28T20:47:59.235Z,1.98
2023-04-28T20:50:26.880Z,2.74
2023-04-28T20:52:54.153Z,2.68
2023-04-28T20:55:22.974Z,1.89
2023-04-28T20:57:50.089Z,1.95
2023-04-28T21:00:17.335Z,1.85
2023-04-28T21:02:44.684Z,1.79
2023-04-28T21:05:12.235Z,2.25
2023-04-28T21:07:39.444Z,2.18
2023-04-28T21:10:07.911Z,2.16
2023-04-28T21:12:36.515Z,2.65
2023-04-28T21:15:04.457Z,2.59
2023-04-28T21:17:31.691Z,2.69
2023-04-28T21:19:58.977Z,2.84
2023-04-28T21:22:26.375Z,2.64
2023-04-28T21:24:53.517Z,2.11
2023-04-28T21:27:20.822Z,1.93
2023-04-28T21:29:49.661Z,1.79
2023-04-28T21:32:17.011Z,2.06
2023-04-28T21:34:47.595Z,1.84
2023-04-28T21:37:14.819Z,2.18
2023-04-28T21:39:41.995Z,2.50
2023-04-28T21:42:09.392Z,2.39
2023-04-28T21:44:36.576Z,2.46
2023-04-28T21:47:05.034Z,2.32
2023-04-28T21:49:32.188Z,2.46
2023-04-28T21:51:59.276Z,2.50
2023-04-28T21:54:26.547Z,2.18
2023-04-28T21:56:53.692Z,2.09
2023-04-28T21:59:20.793Z,2.05
2023-04-28T22:01:48.109Z,1.66
2023-04-28T22:04:17.033Z,1.83
2023-04-28T22:06:45.435Z,1.66
2023-04-28T22:09:12.738Z,1.79
2023-04-28T22:11:39.814Z,1.95
2023-04-28T22:14:06.885Z,1.78
2023-04-28T22:16:34.053Z,1.76
2023-04-28T22:19:01.230Z,1.64
2023-04-28T22:21:29.953Z,1.54
2023-04-28T22:23:57.137Z,1.23
2023-04-28T22:26:24.253Z,1.38
2023-04-28T22:28:51.536Z,1.43
2023-04-28T22:31:19.484Z,1.44
2023-04-28T22:33:46.754Z,1.43
2023-04-28T22:36:13.818Z,1.71
2023-04-28T22:38:42.376Z,1.31
2023-04-28T22:41:09.522Z,1.36
2023-04-28T22:43:36.971Z,1.18
2023-04-28T22:46:04.167Z,1.23
2023-04-28T22:48:31.653Z,1.07
2023-04-28T22:50:58.814Z,1.17
2023-04-28T22:53:25.912Z,1.07
2023-04-28T22:55:54.712Z,1.06
2023-04-28T22:58:21.781Z,0.99
2023-04-28T23:00:49.013Z,0.79
2023-04-28T23:03:16.408Z,0.88
2023-04-28T23:05:43.612Z,0.83
2023-04-28T23:08:10.814Z,0.99
2023-04-28T23:10:37.923Z,0.82
2023-04-28T23:13:06.429Z,0.85
2023-04-28T23:15:33.695Z,1.06
2023-04-28T23:18:00.824Z,0.85
2023-04-28T23:20:28.003Z,1.01
2023-04-28T23:22:55.132Z,0.92
2023-04-28T23:25:22.252Z,1.12
2023-04-28T23:27:49.416Z,1.01
2023-04-28T23:30:18.101Z,0.82
2023-04-28T23:32:45.424Z,1.07
2023-04-28T23:35:12.787Z,1.07
2023-04-28T23:37:39.859Z,1.13
2023-04-28T23:40:09.163Z,1.16
2023-04-28T23:42:36.291Z,0.87
2023-04-28T23:45:03.835Z,0.91
2023-04-28T23:47:32.365Z,0.89
2023-04-28T23:49:59.513Z,1.04
2023-04-28T23:52:26.719Z,1.47
2023-04-28T23:54:53.751Z,1.45
2023-04-28T23:57:20.850Z,1.61
2023-04-28T23:59:48.051Z,1.41
